createdAt,value
2015-11-15T00:00:00.976Z,78.74
2015-11-15T00:00:13.382Z,78.27
2015-11-15T00:00:25.760Z,78.55
2015-11-15T00:00:37.979Z,78.08
2015-11-15T00:00:50.322Z,78.17
2015-11-15T00:01:02.697Z,78.92
2015-11-15T00:01:15.057Z,78.51
2015-11-15T00:01:27.435Z,78.74
2015-11-15T00:01:39.794Z,78.45
2015-11-15T00:01:52.138Z,78.45
2015-11-15T00:02:04.513Z,78.27
2015-11-15T00:02:16.874Z,78.74
2015-11-15T00:02:29.202Z,79.11
2015-11-15T00:02:40.859Z,78.89
2015-11-15T00:02:53.218Z,78.55
2015-11-15T00:03:05.577Z,78.74
2015-11-15T00:03:17.237Z,78.7
2015-11-15T00:03:29.627Z,78.83
2015-11-15T00:03:41.987Z,78.64
2015-11-15T00:03:54.362Z,78.83
2015-11-15T00:04:06.721Z,78.98
2015-11-15T00:04:19.083Z,79.08
2015-11-15T00:04:31.443Z,79.4
2015-11-15T00:04:43.099Z,79.4
2015-11-15T00:04:55.458Z,79.49
2015-11-15T00:05:07.818Z,79.55
2015-11-15T00:05:20.055Z,79.97
2015-11-15T00:05:32.446Z,79.59
2015-11-15T00:05:44.821Z,79.68
2015-11-15T00:05:57.180Z,79.78
2015-11-15T00:06:09.539Z,80.15
2015-11-15T00:06:21.902Z,79.83
2015-11-15T00:06:34.277Z,79.87
2015-11-15T00:06:46.636Z,80.15
2015-11-15T00:06:58.996Z,79.87
2015-11-15T00:07:11.371Z,80.25
2015-11-15T00:07:23.733Z,80.11
2015-11-15T00:07:36.124Z,80.21
2015-11-15T00:07:48.499Z,80.11
2015-11-15T00:08:00.874Z,79.93
2015-11-15T00:08:13.233Z,79.87
2015-11-15T00:08:25.594Z,80.02
2015-11-15T00:08:37.954Z,79.74
2015-11-15T00:08:50.313Z,79.74
2015-11-15T00:09:02.688Z,79.83
2015-11-15T00:09:15.032Z,79.83
2015-11-15T00:09:27.425Z,79.36
2015-11-15T00:09:39.800Z,79.27
2015-11-15T00:09:52.175Z,79.36
2015-11-15T00:10:04.550Z,79.36
2015-11-15T00:10:16.925Z,79.36
2015-11-15T00:10:29.288Z,79.36
2015-11-15T00:10:41.491Z,78.89
2015-11-15T00:10:53.866Z,78.89
2015-11-15T00:11:06.225Z,78.89
2015-11-15T00:11:17.882Z,78.89
2015-11-15T00:11:30.259Z,78.98
2015-11-15T00:11:42.634Z,79.36
2015-11-15T00:11:55.024Z,79.17
2015-11-15T00:12:07.399Z,79.55
2015-11-15T00:12:19.759Z,79.17
2015-11-15T00:12:32.121Z,79.08
2015-11-15T00:12:44.465Z,78.98
2015-11-15T00:12:56.840Z,78.89
2015-11-15T00:13:09.199Z,79.17
2015-11-15T00:13:21.558Z,79.27
2015-11-15T00:13:33.921Z,79.08
2015-11-15T00:13:46.296Z,79.27
2015-11-15T00:13:58.686Z,78.98
2015-11-15T00:14:11.077Z,79.83
2015-11-15T00:14:23.436Z,79.55
2015-11-15T00:14:35.814Z,79.64
2015-11-15T00:14:48.174Z,79.74
2015-11-15T00:15:00.533Z,80.02
2015-11-15T00:15:12.908Z,79.83
2015-11-15T00:15:25.268Z,80.11
2015-11-15T00:15:37.630Z,80.4
2015-11-15T00:15:50.005Z,80.4
2015-11-15T00:16:02.380Z,80.58
2015-11-15T00:16:14.771Z,80.58
2015-11-15T00:16:27.130Z,81.15
2015-11-15T00:16:39.491Z,81.15
2015-11-15T00:16:51.851Z,81.15
2015-11-15T00:17:04.210Z,81.15
2015-11-15T00:17:16.569Z,81.15
2015-11-15T00:17:28.944Z,81.15
2015-11-15T00:17:41.307Z,81.15
2015-11-15T00:17:53.682Z,80.77
2015-11-15T00:18:06.057Z,81.53
2015-11-15T00:18:18.447Z,81.34
2015-11-15T00:18:30.807Z,81.05
2015-11-15T00:18:43.185Z,81.15
2015-11-15T00:18:55.544Z,81.43
2015-11-15T00:19:07.904Z,81.34
2015-11-15T00:19:20.263Z,81.05
2015-11-15T00:19:32.622Z,81.05
2015-11-15T00:19:44.984Z,81.05
2015-11-15T00:19:57.359Z,81.72
2015-11-15T00:20:09.749Z,81.53
2015-11-15T00:20:22.124Z,81.15
2015-11-15T00:20:34.484Z,81.05
2015-11-15T00:20:46.846Z,81.53
2015-11-15T00:20:59.221Z,81.53
2015-11-15T00:21:11.580Z,81.53
2015-11-15T00:21:23.940Z,80.96
2015-11-15T00:21:36.315Z,81.53
2015-11-15T00:21:48.677Z,81.53
2015-11-15T00:22:01.052Z,81.62
2015-11-15T00:22:13.443Z,81.43
2015-11-15T00:22:25.833Z,81.43
2015-11-15T00:22:38.208Z,81.24
2015-11-15T00:22:50.415Z,82
2015-11-15T00:23:02.774Z,81.72
2015-11-15T00:23:15.133Z,81.43
2015-11-15T00:23:27.493Z,81.62
2015-11-15T00:23:39.852Z,82
2015-11-15T00:23:52.214Z,82.19
2015-11-15T00:24:04.605Z,82.47
2015-11-15T00:24:16.964Z,82.95
2015-11-15T00:24:29.355Z,83.14
2015-11-15T00:24:41.714Z,83.23
2015-11-15T00:24:54.091Z,83.23
2015-11-15T00:25:06.451Z,83.51
2015-11-15T00:25:18.826Z,83.42
2015-11-15T00:25:31.185Z,83.14
2015-11-15T00:25:43.529Z,83.7
2015-11-15T00:25:55.907Z,83.7
2015-11-15T00:26:08.298Z,83.42
2015-11-15T00:26:20.673Z,83.51
2015-11-15T00:26:33.048Z,83.42
2015-11-15T00:26:45.407Z,83.23
2015-11-15T00:26:57.768Z,83.33
2015-11-15T00:27:10.128Z,83.42
2015-11-15T00:27:22.487Z,83.51
2015-11-15T00:27:34.862Z,83.51
2015-11-15T00:27:46.503Z,83.42
2015-11-15T00:27:58.882Z,83.42
2015-11-15T00:28:11.257Z,83.61
2015-11-15T00:28:23.632Z,83.8
2015-11-15T00:28:35.288Z,83.89
2015-11-15T00:28:47.663Z,83.98
2015-11-15T00:28:59.306Z,84.45
2015-11-15T00:29:11.665Z,84.92
2015-11-15T00:29:24.040Z,84.55
2015-11-15T00:29:36.399Z,84.74
2015-11-15T00:29:48.759Z,84.64
2015-11-15T00:30:01.121Z,84.74
2015-11-15T00:30:13.512Z,84.92
2015-11-15T00:30:25.902Z,85.11
2015-11-15T00:30:38.262Z,85.11
2015-11-15T00:30:50.730Z,84.64
2015-11-15T00:31:03.092Z,84.92
2015-11-15T00:31:15.451Z,84.92
2015-11-15T00:31:27.811Z,84.83
2015-11-15T00:31:40.232Z,84.83
2015-11-15T00:31:52.436Z,84.74
2015-11-15T00:32:04.799Z,84.74
2015-11-15T00:32:17.190Z,85.21
2015-11-15T00:32:29.565Z,84.74
2015-11-15T00:32:41.236Z,85.3
2015-11-15T00:32:53.611Z,85.4
2015-11-15T00:33:05.973Z,85.11
2015-11-15T00:33:18.348Z,86.06
2015-11-15T00:33:30.723Z,85.59
2015-11-15T00:33:43.067Z,85.68
2015-11-15T00:33:55.426Z,85.59
2015-11-15T00:34:07.804Z,85.96
2015-11-15T00:34:20.179Z,85.96
2015-11-15T00:34:32.554Z,86.15
2015-11-15T00:34:44.945Z,86.06
2015-11-15T00:34:57.320Z,86.25
2015-11-15T00:35:09.682Z,85.96
2015-11-15T00:35:22.041Z,86.06
2015-11-15T00:35:34.416Z,86.15
2015-11-15T00:35:46.776Z,86.15
2015-11-15T00:35:59.135Z,85.96
2015-11-15T00:36:11.497Z,86.34
2015-11-15T00:36:23.857Z,86.06
2015-11-15T00:36:36.216Z,86.72
2015-11-15T00:36:48.576Z,86.53
2015-11-15T00:37:00.951Z,86.82
2015-11-15T00:37:13.296Z,87
2015-11-15T00:37:25.640Z,87.19
2015-11-15T00:37:37.999Z,86.82
2015-11-15T00:37:50.374Z,87
2015-11-15T00:38:02.734Z,87.29
2015-11-15T00:38:15.096Z,87.66
2015-11-15T00:38:27.456Z,87.48
2015-11-15T00:38:39.831Z,87.85
2015-11-15T00:38:52.206Z,87.76
2015-11-15T00:39:04.581Z,87.66
2015-11-15T00:39:16.943Z,88.04
2015-11-15T00:39:29.318Z,88.28
2015-11-15T00:39:41.677Z,88.13
2015-11-15T00:39:54.037Z,87.95
2015-11-15T00:40:05.693Z,88.04
2015-11-15T00:40:18.055Z,88.51
2015-11-15T00:40:30.415Z,88.42
2015-11-15T00:40:42.805Z,88.6
2015-11-15T00:40:55.180Z,88.51
2015-11-15T00:41:07.555Z,88.51
2015-11-15T00:41:19.917Z,88.6
2015-11-15T00:41:32.276Z,88.23
2015-11-15T00:41:43.932Z,88.51
2015-11-15T00:41:56.292Z,88.7
2015-11-15T00:42:08.651Z,88.6
2015-11-15T00:42:21.013Z,88.51
2015-11-15T00:42:33.373Z,88.6
2015-11-15T00:42:45.779Z,88.42
2015-11-15T00:42:58.170Z,88.7
2015-11-15T00:43:10.560Z,88.46
2015-11-15T00:43:22.923Z,88.75
2015-11-15T00:43:35.282Z,88.98
2015-11-15T00:43:47.657Z,88.6
2015-11-15T00:44:00.016Z,88.7
2015-11-15T00:44:12.376Z,88.75
2015-11-15T00:44:24.737Z,88.89
2015-11-15T00:44:37.097Z,88.65
2015-11-15T00:44:49.472Z,88.84
2015-11-15T00:45:01.862Z,88.84
2015-11-15T00:45:14.253Z,89.03
2015-11-15T00:45:26.615Z,88.89
2015-11-15T00:45:38.990Z,88.98
2015-11-15T00:45:51.334Z,89.27
2015-11-15T00:46:03.709Z,88.79
2015-11-15T00:46:15.350Z,88.79
2015-11-15T00:46:27.712Z,89.22
2015-11-15T00:46:40.087Z,89.36
2015-11-15T00:46:52.478Z,89.74
2015-11-15T00:47:04.884Z,89.55
2015-11-15T00:47:17.243Z,90.21
2015-11-15T00:47:29.606Z,89.83
2015-11-15T00:47:41.965Z,90.54
2015-11-15T00:47:54.324Z,90.02
2015-11-15T00:48:06.684Z,90.07
2015-11-15T00:48:19.059Z,90.21
2015-11-15T00:48:31.420Z,90.31
2015-11-15T00:48:43.779Z,90.16
2015-11-15T00:48:56.186Z,89.93
2015-11-15T00:49:08.561Z,90.5
2015-11-15T00:49:20.936Z,90.87
2015-11-15T00:49:33.299Z,90.54
2015-11-15T00:49:45.658Z,90.73
2015-11-15T00:49:58.018Z,90.35
2015-11-15T00:50:10.377Z,90.31
2015-11-15T00:50:22.752Z,90.5
2015-11-15T00:50:35.114Z,90.45
2015-11-15T00:50:47.489Z,90.5
2015-11-15T00:50:59.864Z,90.87
2015-11-15T00:51:12.254Z,90.78
2015-11-15T00:51:24.629Z,90.82
2015-11-15T00:51:37.007Z,91.39
2015-11-15T00:51:49.367Z,91.16
2015-11-15T00:52:01.726Z,90.97
2015-11-15T00:52:13.413Z,91.16
2015-11-15T00:52:25.788Z,91.11
2015-11-15T00:52:38.150Z,91.01
2015-11-15T00:52:50.509Z,91.44
2015-11-15T00:53:02.900Z,91.77
2015-11-15T00:53:15.306Z,91.63
2015-11-15T00:53:27.681Z,91.16
2015-11-15T00:53:40.059Z,91.39
2015-11-15T00:53:52.434Z,91.82
2015-11-15T00:54:04.793Z,91.53
2015-11-15T00:54:17.153Z,91.91
2015-11-15T00:54:29.528Z,92.38
2015-11-15T00:54:41.890Z,92.47
2015-11-15T00:54:54.250Z,92.1
2015-11-15T00:55:06.625Z,92.29
2015-11-15T00:55:19.015Z,92.66
2015-11-15T00:55:31.421Z,92.85
2015-11-15T00:55:43.783Z,92.66
2015-11-15T00:55:56.142Z,92.66
2015-11-15T00:56:07.798Z,92.38
2015-11-15T00:56:20.158Z,92.47
2015-11-15T00:56:31.798Z,92.66
2015-11-15T00:56:44.161Z,92.95
2015-11-15T00:56:56.536Z,92.38
2015-11-15T00:57:08.926Z,92.66
2015-11-15T00:57:21.301Z,92.66
2015-11-15T00:57:33.695Z,92.76
2015-11-15T00:57:46.070Z,92.66
2015-11-15T00:57:58.429Z,92.85
2015-11-15T00:58:10.804Z,92.76
2015-11-15T00:58:23.164Z,92.57
2015-11-15T00:58:35.526Z,92.66
2015-11-15T00:58:47.886Z,92.85
2015-11-15T00:59:00.261Z,93.13
2015-11-15T00:59:12.651Z,92.85
2015-11-15T00:59:25.026Z,93.13
2015-11-15T00:59:37.404Z,93.42
2015-11-15T00:59:49.764Z,93.42
2015-11-15T01:00:02.139Z,93.7
2015-11-15T01:00:14.498Z,93.8
2015-11-15T01:00:26.857Z,93.7
2015-11-15T01:00:39.219Z,94.08
2015-11-15T01:00:51.562Z,94.08
2015-11-15T01:01:03.937Z,94.08
2015-11-15T01:01:16.297Z,93.99
2015-11-15T01:01:28.687Z,94.08
2015-11-15T01:01:41.081Z,94.08
2015-11-15T01:01:53.440Z,94.36
2015-11-15T01:02:05.800Z,94.18
2015-11-15T01:02:18.175Z,94.36
2015-11-15T01:02:30.534Z,94.55
2015-11-15T01:02:42.897Z,94.46
2015-11-15T01:02:55.256Z,94.27
2015-11-15T01:03:07.615Z,95.03
2015-11-15T01:03:19.990Z,94.84
2015-11-15T01:03:32.365Z,94.84
2015-11-15T01:03:44.759Z,95.4
2015-11-15T01:03:57.118Z,95.4
2015-11-15T01:04:09.493Z,95.12
2015-11-15T01:04:21.853Z,95.4
2015-11-15T01:04:34.212Z,95.78
2015-11-15T01:04:46.573Z,95.78
2015-11-15T01:04:58.933Z,95.31
2015-11-15T01:05:11.308Z,95.87
2015-11-15T01:05:23.667Z,95.59
2015-11-15T01:05:36.058Z,95.4
2015-11-15T01:05:48.436Z,95.97
2015-11-15T01:06:00.811Z,96.25
2015-11-15T01:06:13.186Z,95.97
2015-11-15T01:06:25.561Z,95.87
2015-11-15T01:06:37.905Z,95.97
2015-11-15T01:06:50.267Z,96.44
2015-11-15T01:07:01.939Z,96.25
2015-11-15T01:07:14.283Z,96.72
2015-11-15T01:07:26.658Z,96.53
2015-11-15T01:07:39.033Z,96.25
2015-11-15T01:07:51.410Z,96.53
2015-11-15T01:08:03.785Z,96.44
2015-11-15T01:08:16.160Z,97
2015-11-15T01:08:28.519Z,96.91
2015-11-15T01:08:40.878Z,97
2015-11-15T01:08:53.241Z,97.19
2015-11-15T01:09:04.881Z,97.38
2015-11-15T01:09:17.256Z,97.19
2015-11-15T01:09:29.631Z,97
2015-11-15T01:09:42.006Z,97.57
2015-11-15T01:09:54.384Z,97.48
2015-11-15T01:10:06.744Z,97.38
2015-11-15T01:10:19.119Z,97.76
2015-11-15T01:10:31.462Z,97.85
2015-11-15T01:10:43.822Z,97.85
2015-11-15T01:10:56.184Z,97.95
2015-11-15T01:11:08.544Z,98.23
2015-11-15T01:11:20.887Z,97.57
2015-11-15T01:11:33.247Z,97.38
2015-11-15T01:11:45.622Z,97.57
2015-11-15T01:11:58.015Z,97.95
2015-11-15T01:12:10.375Z,98.04
2015-11-15T01:12:22.734Z,98.14
2015-11-15T01:12:35.093Z,98.8
2015-11-15T01:12:47.453Z,98.42
2015-11-15T01:12:59.830Z,98.8
2015-11-15T01:13:12.189Z,98.8
2015-11-15T01:13:24.549Z,98.61
2015-11-15T01:13:36.924Z,98.71
2015-11-15T01:13:49.314Z,98.8
2015-11-15T01:14:01.709Z,98.71
2015-11-15T01:14:14.068Z,98.42
2015-11-15T01:14:26.443Z,98.8
2015-11-15T01:14:38.803Z,98.61
2015-11-15T01:14:51.162Z,98.8
2015-11-15T01:15:03.523Z,98.9
2015-11-15T01:15:15.914Z,98.8
2015-11-15T01:15:28.117Z,99.18
2015-11-15T01:15:40.492Z,99.08
2015-11-15T01:15:52.883Z,98.8
2015-11-15T01:16:05.276Z,99.18
2015-11-15T01:16:17.636Z,99.18
2015-11-15T01:16:30.011Z,98.99
2015-11-15T01:16:42.370Z,98.8
2015-11-15T01:16:54.729Z,99.27
2015-11-15T01:17:07.106Z,99.46
2015-11-15T01:17:19.466Z,99.46
2015-11-15T01:17:31.825Z,99.27
2015-11-15T01:17:44.200Z,99.27
2015-11-15T01:17:56.435Z,99.46
2015-11-15T01:18:08.829Z,99.37
2015-11-15T01:18:21.204Z,99.55
2015-11-15T01:18:33.564Z,99.46
2015-11-15T01:18:45.923Z,99.55
2015-11-15T01:18:58.282Z,99.65
2015-11-15T01:19:10.660Z,99.93
2015-11-15T01:19:23.020Z,99.99
2015-11-15T01:19:35.395Z,99.99
2015-11-15T01:19:47.754Z,99.99
2015-11-15T01:20:00.145Z,99.74
2015-11-15T01:20:12.553Z,99.74
2015-11-15T01:20:24.944Z,99.74
2015-11-15T01:20:37.303Z,99.93
2015-11-15T01:20:49.662Z,99.84
2015-11-15T01:21:02.022Z,99.99
2015-11-15T01:21:14.399Z,99.99
2015-11-15T01:21:26.758Z,99.99
2015-11-15T01:21:39.117Z,99.99
2015-11-15T01:21:51.492Z,99.99
2015-11-15T01:22:03.852Z,99.99
2015-11-15T01:22:16.245Z,99.99
2015-11-15T01:22:28.620Z,99.99
2015-11-15T01:22:40.980Z,99.99
2015-11-15T01:22:53.339Z,99.99
2015-11-15T01:23:05.714Z,99.99
2015-11-15T01:23:18.077Z,99.99
2015-11-15T01:23:30.436Z,99.99
2015-11-15T01:23:42.811Z,99.99
2015-11-15T01:23:55.170Z,99.99
2015-11-15T01:24:07.545Z,99.99
2015-11-15T01:24:19.923Z,99.99
2015-11-15T01:24:32.314Z,99.99
2015-11-15T01:24:44.673Z,99.99
2015-11-15T01:24:57.033Z,99.99
2015-11-15T01:25:09.408Z,99.99
2015-11-15T01:25:21.770Z,99.99
2015-11-15T01:25:34.129Z,99.99
2015-11-15T01:25:46.489Z,99.99
2015-11-15T01:25:58.848Z,99.99
2015-11-15T01:26:11.239Z,99.99
2015-11-15T01:26:23.631Z,99.99
2015-11-15T01:26:36.006Z,99.99
2015-11-15T01:26:48.366Z,99.99
2015-11-15T01:27:00.725Z,99.99
2015-11-15T01:27:13.085Z,99.99
2015-11-15T01:27:25.447Z,99.99
2015-11-15T01:27:37.806Z,99.99
2015-11-15T01:27:50.166Z,99.99
2015-11-15T01:28:02.525Z,99.99
2015-11-15T01:28:14.900Z,99.99
2015-11-15T01:28:27.278Z,99.99
2015-11-15T01:28:38.950Z,99.99
2015-11-15T01:28:51.309Z,99.99
2015-11-15T01:29:03.684Z,99.99
2015-11-15T01:29:16.044Z,99.99
2015-11-15T01:29:28.406Z,99.99
2015-11-15T01:29:40.781Z,99.99
2015-11-15T01:29:53.140Z,99.99
2015-11-15T01:30:05.515Z,99.99
2015-11-15T01:30:17.906Z,99.99
2015-11-15T01:30:30.284Z,99.99
2015-11-15T01:30:42.643Z,99.99
2015-11-15T01:30:55.003Z,99.99
2015-11-15T01:31:07.378Z,99.99
2015-11-15T01:31:19.737Z,99.99
2015-11-15T01:31:32.100Z,99.99
2015-11-15T01:31:44.459Z,99.99
2015-11-15T01:31:56.818Z,99.99
2015-11-15T01:32:09.178Z,99.99
2015-11-15T01:32:21.568Z,99.99
2015-11-15T01:32:33.945Z,99.99
2015-11-15T01:32:46.352Z,99.99
2015-11-15T01:32:58.711Z,99.99
2015-11-15T01:33:11.086Z,99.99
2015-11-15T01:33:23.445Z,99.99
2015-11-15T01:33:35.808Z,99.99
2015-11-15T01:33:48.167Z,99.99
2015-11-15T01:34:00.542Z,99.99
2015-11-15T01:34:12.917Z,99.99
2015-11-15T01:34:25.292Z,99.99
2015-11-15T01:34:37.701Z,99.99
2015-11-15T01:34:50.061Z,99.99
2015-11-15T01:35:02.420Z,99.99
2015-11-15T01:35:14.779Z,99.99
2015-11-15T01:35:27.154Z,99.99
2015-11-15T01:35:39.516Z,99.99
2015-11-15T01:35:51.875Z,99.99
2015-11-15T01:36:04.235Z,99.99
2015-11-15T01:36:16.594Z,99.99
2015-11-15T01:36:28.969Z,99.99
2015-11-15T01:36:41.363Z,99.99
2015-11-15T01:36:53.738Z,99.99
2015-11-15T01:37:06.097Z,99.99
2015-11-15T01:37:18.456Z,99.99
2015-11-15T01:37:30.847Z,99.99
2015-11-15T01:37:43.208Z,99.99
2015-11-15T01:37:55.568Z,99.99
2015-11-15T01:38:07.927Z,99.99
2015-11-15T01:38:20.286Z,99.99
2015-11-15T01:38:32.661Z,99.99
2015-11-15T01:38:45.055Z,99.99
2015-11-15T01:38:57.446Z,99.99
2015-11-15T01:39:09.805Z,99.99
2015-11-15T01:39:22.164Z,99.99
2015-11-15T01:39:34.539Z,99.99
2015-11-15T01:39:46.886Z,99.99
2015-11-15T01:39:59.261Z,99.99
2015-11-15T01:40:11.621Z,99.99
2015-11-15T01:40:23.996Z,99.99
2015-11-15T01:40:36.355Z,99.99
2015-11-15T01:40:48.717Z,99.99
2015-11-15T01:41:01.092Z,99.99
2015-11-15T01:41:13.467Z,99.99
2015-11-15T01:41:25.858Z,99.99
2015-11-15T01:41:38.233Z,99.99
2015-11-15T01:41:50.611Z,99.99
2015-11-15T01:42:02.970Z,99.99
2015-11-15T01:42:15.345Z,99.99
2015-11-15T01:42:27.705Z,99.99
2015-11-15T01:42:40.064Z,99.99
2015-11-15T01:42:52.426Z,99.99
2015-11-15T01:43:04.786Z,99.99
2015-11-15T01:43:17.161Z,99.99
2015-11-15T01:43:28.817Z,99.99
2015-11-15T01:43:41.208Z,99.99
2015-11-15T01:43:53.569Z,99.99
2015-11-15T01:44:05.944Z,99.99
2015-11-15T01:44:18.303Z,99.99
2015-11-15T01:44:30.663Z,99.99
2015-11-15T01:44:43.038Z,99.99
2015-11-15T01:44:55.385Z,99.99
2015-11-15T01:45:07.728Z,99.99
2015-11-15T01:45:20.103Z,99.99
2015-11-15T01:45:32.463Z,99.99
2015-11-15T01:45:44.822Z,99.99
2015-11-15T01:45:57.184Z,99.99
2015-11-15T01:46:09.544Z,99.99
2015-11-15T01:46:21.919Z,99.99
2015-11-15T01:46:34.278Z,99.99
2015-11-15T01:46:46.653Z,99.99
2015-11-15T01:46:59.016Z,99.99
2015-11-15T01:47:11.375Z,99.99
2015-11-15T01:47:23.750Z,99.99
2015-11-15T01:47:36.141Z,99.99
2015-11-15T01:47:48.516Z,99.99
2015-11-15T01:48:00.877Z,99.99
2015-11-15T01:48:13.236Z,99.99
2015-11-15T01:48:25.674Z,99.99
2015-11-15T01:48:38.033Z,99.99
2015-11-15T01:48:50.408Z,99.99
2015-11-15T01:49:02.771Z,99.99
2015-11-15T01:49:15.146Z,99.99
2015-11-15T01:49:27.521Z,99.99
2015-11-15T01:49:39.911Z,99.99
2015-11-15T01:49:52.271Z,99.99
2015-11-15T01:50:04.633Z,99.99
2015-11-15T01:50:16.992Z,99.99
2015-11-15T01:50:29.352Z,99.99
2015-11-15T01:50:41.711Z,99.99
2015-11-15T01:50:54.070Z,99.99
2015-11-15T01:51:06.433Z,99.99
2015-11-15T01:51:18.823Z,99.99
2015-11-15T01:51:31.183Z,99.99
2015-11-15T01:51:43.558Z,99.99
2015-11-15T01:51:55.933Z,99.99
2015-11-15T01:52:08.311Z,99.99
2015-11-15T01:52:20.670Z,99.99
2015-11-15T01:52:33.045Z,99.99
2015-11-15T01:52:45.405Z,99.99
2015-11-15T01:52:57.764Z,99.99
2015-11-15T01:53:10.126Z,99.99
2015-11-15T01:53:22.501Z,99.99
2015-11-15T01:53:34.876Z,99.99
2015-11-15T01:53:47.251Z,99.99
2015-11-15T01:53:59.626Z,99.99
2015-11-15T01:54:12.003Z,99.99
2015-11-15T01:54:24.363Z,99.99
2015-11-15T01:54:36.722Z,99.99
2015-11-15T01:54:49.081Z,99.99
2015-11-15T01:55:01.441Z,99.99
2015-11-15T01:55:13.803Z,99.99
2015-11-15T01:55:26.178Z,99.99
2015-11-15T01:55:38.397Z,99.99
2015-11-15T01:55:50.788Z,99.99
2015-11-15T01:56:03.163Z,99.99
2015-11-15T01:56:15.540Z,99.99
2015-11-15T01:56:27.899Z,99.99
2015-11-15T01:56:39.540Z,99.99
2015-11-15T01:56:51.899Z,99.99
2015-11-15T01:57:04.274Z,99.99
2015-11-15T01:57:16.636Z,99.99
2015-11-15T01:57:28.839Z,99.99
2015-11-15T01:57:41.261Z,99.99
2015-11-15T01:57:53.636Z,99.99
2015-11-15T01:58:06.043Z,99.99
2015-11-15T01:58:18.405Z,99.99
2015-11-15T01:58:30.764Z,99.99
2015-11-15T01:58:43.155Z,99.99
2015-11-15T01:58:55.499Z,99.99
2015-11-15T01:59:07.858Z,99.99
2015-11-15T01:59:20.220Z,99.99
2015-11-15T01:59:32.595Z,99.99
2015-11-15T01:59:44.970Z,99.99
2015-11-15T01:59:57.361Z,99.99
2015-11-15T02:00:09.736Z,99.99
2015-11-15T02:00:22.098Z,99.99
2015-11-15T02:00:34.473Z,99.99
2015-11-15T02:00:46.833Z,99.99
2015-11-15T02:00:59.192Z,99.99
2015-11-15T02:01:11.552Z,99.99
2015-11-15T02:01:23.913Z,99.99
2015-11-15T02:01:36.272Z,99.99
2015-11-15T02:01:48.632Z,99.99
2015-11-15T02:02:01.007Z,99.99
2015-11-15T02:02:13.397Z,99.99
2015-11-15T02:02:25.760Z,99.99
2015-11-15T02:02:38.119Z,99.99
2015-11-15T02:02:50.494Z,99.99
2015-11-15T02:03:02.853Z,99.99
2015-11-15T02:03:15.228Z,99.99
2015-11-15T02:03:27.591Z,99.99
2015-11-15T02:03:39.950Z,99.99
2015-11-15T02:03:52.325Z,99.99
2015-11-15T02:04:04.716Z,99.99
2015-11-15T02:04:17.106Z,99.99
2015-11-15T02:04:29.469Z,99.99
2015-11-15T02:04:41.844Z,99.99
2015-11-15T02:04:54.203Z,99.99
2015-11-15T02:05:06.563Z,99.99
2015-11-15T02:05:18.922Z,99.99
2015-11-15T02:05:31.284Z,99.99
2015-11-15T02:05:43.644Z,99.99
2015-11-15T02:05:56.019Z,99.99
2015-11-15T02:06:08.378Z,99.99
2015-11-15T02:06:20.769Z,99.99
2015-11-15T02:06:33.146Z,99.99
2015-11-15T02:06:45.505Z,99.99
2015-11-15T02:06:57.864Z,99.99
2015-11-15T02:07:10.271Z,99.99
2015-11-15T02:07:22.630Z,99.99
2015-11-15T02:07:34.992Z,99.99
2015-11-15T02:07:47.352Z,99.99
2015-11-15T02:07:59.711Z,99.99
2015-11-15T02:08:12.102Z,99.99
2015-11-15T02:08:24.477Z,99.99
2015-11-15T02:08:36.855Z,99.99
2015-11-15T02:08:49.214Z,99.99
2015-11-15T02:09:01.574Z,99.99
2015-11-15T02:09:13.933Z,99.99
2015-11-15T02:09:26.292Z,99.99
2015-11-15T02:09:38.654Z,99.99
2015-11-15T02:09:51.029Z,99.99
2015-11-15T02:10:03.388Z,99.99
2015-11-15T02:10:15.779Z,99.99
2015-11-15T02:10:28.157Z,99.99
2015-11-15T02:10:40.532Z,99.99
2015-11-15T02:10:52.907Z,99.99
2015-11-15T02:11:05.266Z,99.99
2015-11-15T02:11:17.641Z,99.99
2015-11-15T02:11:30.003Z,99.99
2015-11-15T02:11:42.363Z,99.99
2015-11-15T02:11:54.722Z,99.99
2015-11-15T02:12:07.113Z,99.99
2015-11-15T02:12:19.472Z,99.99
2015-11-15T02:12:31.866Z,99.99
2015-11-15T02:12:44.225Z,99.99
2015-11-15T02:12:56.600Z,99.99
2015-11-15T02:13:08.256Z,99.99
2015-11-15T02:13:20.616Z,99.99
2015-11-15T02:13:32.977Z,99.99
2015-11-15T02:13:45.337Z,99.99
2015-11-15T02:13:57.696Z,99.99
2015-11-15T02:14:10.071Z,99.99
2015-11-15T02:14:22.462Z,99.99
2015-11-15T02:14:34.840Z,99.99
2015-11-15T02:14:47.215Z,99.99
2015-11-15T02:14:59.574Z,99.99
2015-11-15T02:15:11.933Z,99.99
2015-11-15T02:15:24.293Z,99.99
2015-11-15T02:15:36.671Z,99.99
2015-11-15T02:15:49.030Z,99.99
2015-11-15T02:16:01.389Z,99.99
2015-11-15T02:16:13.749Z,99.99
2015-11-15T02:16:26.124Z,99.99
2015-11-15T02:16:38.516Z,99.99
2015-11-15T02:16:50.891Z,99.99
2015-11-15T02:17:03.266Z,99.99
2015-11-15T02:17:15.626Z,99.99
2015-11-15T02:17:27.985Z,99.99
2015-11-15T02:17:40.348Z,99.99
2015-11-15T02:17:52.723Z,99.99
2015-11-15T02:18:05.082Z,99.99
2015-11-15T02:18:17.457Z,99.99
2015-11-15T02:18:29.832Z,99.99
2015-11-15T02:18:42.194Z,99.99
2015-11-15T02:18:54.413Z,99.99
2015-11-15T02:19:06.772Z,99.99
2015-11-15T02:19:19.132Z,99.99
2015-11-15T02:19:31.476Z,99.99
2015-11-15T02:19:43.838Z,99.99
2015-11-15T02:19:56.182Z,99.99
2015-11-15T02:20:08.557Z,99.99
2015-11-15T02:20:20.916Z,99.99
2015-11-15T02:20:33.275Z,99.99
2015-11-15T02:20:45.669Z,99.99
2015-11-15T02:20:58.060Z,99.99
2015-11-15T02:21:10.419Z,99.99
2015-11-15T02:21:22.778Z,99.99
2015-11-15T02:21:35.138Z,99.99
2015-11-15T02:21:47.499Z,99.99
2015-11-15T02:21:59.874Z,99.99
2015-11-15T02:22:12.234Z,99.99
2015-11-15T02:22:24.593Z,99.99
2015-11-15T02:22:36.968Z,99.99
2015-11-15T02:22:49.362Z,99.99
2015-11-15T02:23:01.737Z,99.99
2015-11-15T02:23:14.096Z,99.99
2015-11-15T02:23:26.455Z,99.99
2015-11-15T02:23:38.815Z,99.99
2015-11-15T02:23:51.177Z,99.99
2015-11-15T02:24:03.552Z,99.99
2015-11-15T02:24:15.911Z,99.99
2015-11-15T02:24:28.286Z,99.99
2015-11-15T02:24:40.646Z,99.99
2015-11-15T02:24:53.038Z,99.99
2015-11-15T02:25:04.695Z,99.99
2015-11-15T02:25:16.929Z,99.99
2015-11-15T02:25:29.273Z,99.99
2015-11-15T02:25:41.648Z,99.99
2015-11-15T02:25:54.057Z,99.99
2015-11-15T02:26:05.713Z,99.99
2015-11-15T02:26:18.073Z,99.99
2015-11-15T02:26:30.432Z,99.99
2015-11-15T02:26:42.791Z,99.99
2015-11-15T02:26:55.169Z,99.99
2015-11-15T02:27:07.544Z,99.99
2015-11-15T02:27:19.935Z,99.99
2015-11-15T02:27:32.294Z,99.99
2015-11-15T02:27:44.654Z,99.99
2015-11-15T02:27:57.015Z,99.99
2015-11-15T02:28:09.390Z,99.99
2015-11-15T02:28:21.750Z,99.99
2015-11-15T02:28:34.109Z,99.99
2015-11-15T02:28:46.484Z,99.99
2015-11-15T02:28:58.878Z,99.99
2015-11-15T02:29:11.253Z,99.99
2015-11-15T02:29:23.643Z,99.99
2015-11-15T02:29:35.987Z,99.99
2015-11-15T02:29:48.362Z,99.99
2015-11-15T02:30:00.724Z,99.99
2015-11-15T02:30:13.084Z,99.99
2015-11-15T02:30:25.443Z,99.99
2015-11-15T02:30:37.802Z,99.99
2015-11-15T02:30:50.177Z,99.99
2015-11-15T02:31:02.540Z,99.99
2015-11-15T02:31:14.243Z,99.99
2015-11-15T02:31:26.634Z,99.99
2015-11-15T02:31:38.993Z,99.99
2015-11-15T02:31:51.352Z,99.99
2015-11-15T02:32:03.715Z,99.99
2015-11-15T02:32:16.074Z,99.99
2015-11-15T02:32:28.293Z,99.99
2015-11-15T02:32:40.652Z,99.99
2015-11-15T02:32:53.043Z,99.99
2015-11-15T02:33:05.420Z,99.99
2015-11-15T02:33:17.826Z,99.99
2015-11-15T02:33:30.170Z,99.99
2015-11-15T02:33:42.545Z,99.99
2015-11-15T02:33:54.904Z,99.99
2015-11-15T02:34:07.282Z,99.99
2015-11-15T02:34:19.642Z,99.99
2015-11-15T02:34:32.001Z,99.99
2015-11-15T02:34:44.376Z,99.99
2015-11-15T02:34:56.751Z,99.99
2015-11-15T02:35:09.145Z,99.99
2015-11-15T02:35:21.566Z,99.99
2015-11-15T02:35:33.926Z,99.99
2015-11-15T02:35:46.285Z,99.99
2015-11-15T02:35:58.660Z,99.99
2015-11-15T02:36:11.023Z,99.99
2015-11-15T02:36:23.398Z,99.99
2015-11-15T02:36:35.757Z,99.99
2015-11-15T02:36:48.116Z,99.99
2015-11-15T02:37:00.491Z,99.99
2015-11-15T02:37:12.885Z,99.99
2015-11-15T02:37:25.260Z,99.99
2015-11-15T02:37:37.635Z,99.99
2015-11-15T02:37:49.994Z,99.99
2015-11-15T02:38:02.354Z,99.99
2015-11-15T02:38:14.732Z,99.99
2015-11-15T02:38:27.091Z,99.99
2015-11-15T02:38:39.450Z,99.99
2015-11-15T02:38:51.810Z,99.99
2015-11-15T02:39:04.185Z,99.99
2015-11-15T02:39:16.562Z,99.99